Time;durP1;ratioP1;P1;durP2;ratioP2;P2;SDS_P1;SDS_P2;PMS_P1;PMS_P2;Temp;Humidity;BMP_temperature;BMP_pressure;BME280_temperature;BME280_humidity;BME280_pressure;Samples;Min_cycle;Max_cycle;Signal;HPM_P1;HPM_P2
2023/01/04 00:02:05;;;;;;;20.73;5.20;;;;;;;6.69;100.00;101798.06;5083086;28;20028;-74
2023/01/04 00:04:30;;;;;;;22.10;5.47;;;;;;;6.66;100.00;101776.94;5083244;28;20468;-74
2023/01/04 00:06:56;;;;;;;21.50;5.45;;;;;;;6.63;100.00;101777.72;5084345;28;20111;-77
2023/01/04 00:09:21;;;;;;;19.42;5.18;;;;;;;6.63;100.00;101820.66;5082142;28;20098;-73
2023/01/04 00:11:47;;;;;;;20.17;5.50;;;;;;;6.63;100.00;101770.72;5085250;28;20524;-73
2023/01/04 00:14:13;;;;;;;21.58;5.75;;;;;;;6.62;100.00;101787.31;5081834;28;20079;-74
2023/01/04 00:16:38;;;;;;;20.20;5.55;;;;;;;6.65;100.00;101762.91;5083965;28;20047;-74
2023/01/04 00:19:03;;;;;;;18.92;5.78;;;;;;;6.68;100.00;101770.00;5082876;28;20020;-74
2023/01/04 00:21:29;;;;;;;21.83;6.18;;;;;;;6.67;100.00;101757.69;5082780;28;20115;-75
2023/01/04 00:23:58;;;;;;;20.50;6.05;;;;;;;6.63;100.00;101744.44;5084018;28;20024;-74
2023/01/04 00:26:29;;;;;;;21.77;6.22;;;;;;;6.71;100.00;101751.72;5081494;28;20029;-74
2023/01/04 00:28:57;;;;;;;21.00;6.22;;;;;;;6.68;100.00;101733.22;5083970;28;20035;-74
2023/01/04 00:31:23;;;;;;;20.77;6.13;;;;;;;6.70;100.00;101732.44;5081711;28;20039;-74
2023/01/04 00:33:49;;;;;;;21.35;6.20;;;;;;;6.72;100.00;101724.59;5084693;28;20050;-74
2023/01/04 00:36:15;;;;;;;19.17;5.70;;;;;;;6.78;100.00;101724.81;5077054;28;20037;-76
2023/01/04 00:38:41;;;;;;;20.73;5.97;;;;;;;6.75;100.00;101701.94;5084054;28;20027;-73
2023/01/04 00:41:08;;;;;;;21.00;5.85;;;;;;;6.80;100.00;101717.84;5082205;28;20024;-74
2023/01/04 00:43:33;;;;;;;21.90;5.90;;;;;;;6.80;100.00;101717.84;5083165;28;20035;-75
2023/01/04 00:46:03;;;;;;;19.85;5.78;;;;;;;6.80;100.00;101712.59;5083610;28;20036;-73
2023/01/04 00:48:29;;;;;;;19.95;5.70;;;;;;;6.86;100.00;101701.38;5082277;28;20032;-74
2023/01/04 00:50:54;;;;;;;18.80;5.70;;;;;;;6.88;100.00;101704.97;5083766;28;20024;-76
2023/01/04 00:53:20;;;;;;;19.50;5.50;;;;;;;6.85;100.00;101708.41;5081154;28;20051;-77
2023/01/04 00:55:46;;;;;;;20.10;5.85;;;;;;;6.89;100.00;101705.03;5084558;28;20107;-74
2023/01/04 00:58:12;;;;;;;17.98;5.32;;;;;;;6.95;100.00;101702.59;5081453;28;20024;-73
2023/01/04 01:00:38;;;;;;;20.80;5.78;;;;;;;6.95;100.00;101686.81;5083214;28;20024;-74
2023/01/04 01:03:04;;;;;;;19.40;5.85;;;;;;;6.95;100.00;101707.84;5064252;28;20166;-75
2023/01/04 01:05:31;;;;;;;18.38;5.65;;;;;;;6.98;100.00;101692.19;5082214;28;20053;-73
2023/01/04 01:07:56;;;;;;;18.85;5.68;;;;;;;7.00;100.00;101678.19;5083210;28;20085;-76
2023/01/04 01:10:22;;;;;;;20.08;5.88;;;;;;;7.05;100.00;101677.50;5082293;28;20068;-75
2023/01/04 01:12:47;;;;;;;19.27;5.63;;;;;;;7.06;100.00;101662.63;5091407;28;20066;-75
2023/01/04 01:15:12;;;;;;;18.20;5.28;;;;;;;7.09;100.00;101671.50;5087681;28;20044;-75
2023/01/04 01:17:38;;;;;;;17.45;5.50;;;;;;;7.09;100.00;101673.22;5089840;28;20123;-76
2023/01/04 01:20:04;;;;;;;16.52;5.07;;;;;;;7.14;100.00;101655.88;5089293;28;20027;-75
2023/01/04 01:22:30;;;;;;;18.58;5.03;;;;;;;7.19;100.00;101685.81;5088828;28;20025;-76
2023/01/04 01:24:55;;;;;;;17.10;4.80;;;;;;;7.19;100.00;101675.28;5090059;28;20397;-76
2023/01/04 01:27:21;;;;;;;17.45;4.63;;;;;;;7.20;100.00;101661.31;5069489;28;20052;-75
2023/01/04 01:29:46;;;;;;;17.25;4.90;;;;;;;7.22;100.00;101671.88;5072768;28;20032;-76
2023/01/04 01:32:12;;;;;;;16.08;4.95;;;;;;;7.20;100.00;101661.31;5069706;28;20028;-75
2023/01/04 01:34:37;;;;;;;18.80;4.90;;;;;;;7.19;100.00;101661.25;5089714;28;20540;-76
2023/01/04 01:37:02;;;;;;;15.65;4.80;;;;;;;7.25;100.00;101654.47;5089148;28;20494;-77
2023/01/04 01:39:28;;;;;;;17.23;5.03;;;;;;;7.27;100.00;101657.16;5088346;28;20472;-76
2023/01/04 01:41:53;;;;;;;16.67;4.93;;;;;;;7.24;100.00;101652.69;5090320;28;20056;-76
2023/01/04 01:44:40;;;;;;;17.92;5.25;;;;;;;7.27;100.00;101652.78;5087193;28;20111;-76
2023/01/04 01:47:12;;;;;;;19.00;5.38;;;;;;;7.28;100.00;101633.53;5087877;28;20029;-75
2023/01/04 01:49:38;;;;;;;18.13;4.95;;;;;;;7.30;100.00;101629.19;5088084;28;20036;-76
2023/01/04 01:52:07;;;;;;;17.85;5.30;;;;;;;7.29;100.00;101642.28;5089048;28;20447;-76
2023/01/04 01:54:39;;;;;;;18.45;4.90;;;;;;;7.29;100.00;101634.41;5088793;28;20073;-76
2023/01/04 01:57:08;;;;;;;15.90;4.70;;;;;;;7.33;100.00;101637.16;5088908;28;20462;-76
2023/01/04 01:59:39;;;;;;;17.23;5.00;;;;;;;7.32;100.00;101635.41;5088862;28;20381;-76
2023/01/04 02:02:04;;;;;;;16.42;5.10;;;;;;;7.31;100.00;101630.97;5088979;28;20028;-78
2023/01/04 02:04:30;;;;;;;15.15;4.75;;;;;;;7.33;100.00;101644.19;5089097;28;20032;-77
2023/01/04 02:06:57;;;;;;;15.02;4.78;;;;;;;7.36;100.00;101622.34;5087756;28;20020;-79
2023/01/04 02:09:23;;;;;;;17.67;5.00;;;;;;;7.37;100.00;101637.25;5089958;28;20382;-75
2023/01/04 02:11:49;;;;;;;15.20;4.70;;;;;;;7.43;100.00;101648.00;5087151;28;20032;-75
2023/01/04 02:14:26;;;;;;;14.85;4.40;;;;;;;7.47;100.00;101644.56;5090210;28;20482;-75
2023/01/04 02:17:22;;;;;;;15.55;4.60;;;;;;;7.48;100.00;101670.97;5083893;28;20039;-76
2023/01/04 02:20:06;;;;;;;14.13;4.20;;;;;;;7.54;100.00;101641.28;5083291;28;20032;-75
2023/01/04 02:22:32;;;;;;;15.10;4.50;;;;;;;7.53;100.00;101635.97;5099783;28;20426;-75
2023/01/04 02:25:35;;;;;;;12.52;4.20;;;;;;;7.57;100.00;101632.59;5086083;28;20024;-75
2023/01/04 02:28:30;;;;;;;14.32;4.40;;;;;;;7.60;100.00;101628.31;5082802;28;20037;-75
2023/01/04 02:31:14;;;;;;;14.85;4.10;;;;;;;7.61;100.00;101637.97;5081365;28;20020;-76
2023/01/04 02:33:50;;;;;;;12.23;3.85;;;;;;;7.65;100.00;101644.25;5084294;28;20024;-76
2023/01/04 02:36:41;;;;;;;13.88;3.90;;;;;;;7.63;100.00;101653.81;5086957;28;20032;-77
2023/01/04 02:39:36;;;;;;;11.40;3.70;;;;;;;7.70;100.00;101623.31;5080130;28;20084;-76
2023/01/04 02:42:12;;;;;;;12.45;3.80;;;;;;;7.67;100.00;101606.59;4993449;28;20145;-76
2023/01/04 02:44:53;;;;;;;12.40;3.80;;;;;;;7.68;100.00;101600.47;5084414;28;20564;-76
2023/01/04 02:50:30;;;;;;;10.80;3.70;;;;;;;7.73;100.00;101599.72;5079358;28;20074;-76
2023/01/04 02:52:58;;;;;;;8.85;3.63;;;;;;;7.72;100.00;101590.03;5080787;28;20020;-76
2023/01/04 02:55:35;;;;;;;10.00;3.72;;;;;;;7.73;100.00;101594.44;5086326;28;20032;-76
2023/01/04 02:58:18;;;;;;;12.10;3.90;;;;;;;7.76;100.00;101560.31;5084404;28;20060;-76
2023/01/04 03:06:51;;;;;;;12.57;4.30;;;;;;;7.81;100.00;101587.66;5084304;28;20521;-77
2023/01/04 03:09:28;;;;;;;12.65;4.05;;;;;;;7.81;100.00;101570.13;5078868;28;20044;-77
2023/01/04 03:14:59;;;;;;;12.50;4.15;;;;;;;7.87;100.00;101569.41;5079459;28;20544;-76
2023/01/04 03:17:26;;;;;;;13.35;4.20;;;;;;;7.83;100.00;101563.19;5080094;28;20032;-76
2023/01/04 03:19:54;;;;;;;12.25;4.30;;;;;;;7.89;100.00;101553.66;5086052;28;20419;-78
2023/01/04 03:36:41;;;;;;;12.90;4.53;;;;;;;7.99;100.00;101534.59;5081625;28;20445;-77
2023/01/04 03:48:32;;;;;;;14.63;4.90;;;;;;;8.19;100.00;101527.22;5082825;28;20486;-76
2023/01/04 03:51:06;;;;;;;13.37;4.90;;;;;;;8.16;100.00;101521.88;5079994;28;20052;-76
2023/01/04 03:53:37;;;;;;;15.23;4.78;;;;;;;8.22;100.00;101510.59;5084066;28;20274;-76
2023/01/04 03:56:03;;;;;;;16.50;5.28;;;;;;;8.18;100.00;101509.63;5083472;28;20028;-76
2023/01/04 03:58:28;;;;;;;14.45;4.93;;;;;;;8.24;100.00;101544.00;5084739;28;20486;-76
2023/01/04 04:01:02;;;;;;;15.48;5.00;;;;;;;8.25;100.00;101515.94;5064052;28;20040;-76
2023/01/04 04:03:27;;;;;;;15.05;4.57;;;;;;;8.25;100.00;101500.16;5084497;28;20471;-76
2023/01/04 04:08:36;;;;;;;16.65;5.28;;;;;;;8.26;100.00;101507.19;5083546;28;20039;-77
2023/01/04 04:13:47;;;;;;;14.73;4.65;;;;;;;8.33;100.00;101507.38;5081926;28;20044;-77
2023/01/04 04:16:13;;;;;;;18.08;5.40;;;;;;;8.37;100.00;101500.41;5084518;28;20032;-76
2023/01/04 04:18:39;;;;;;;16.60;4.90;;;;;;;8.34;100.00;101485.47;5082852;28;20028;-76
2023/01/04 04:21:04;;;;;;;15.88;5.07;;;;;;;8.41;100.00;101504.03;5083078;28;20155;-76
2023/01/04 04:23:30;;;;;;;16.15;5.35;;;;;;;8.41;100.00;101481.19;5083914;28;20032;-76
2023/01/04 04:25:55;;;;;;;16.10;5.68;;;;;;;8.41;100.00;101485.59;5081666;28;20025;-76
2023/01/04 04:28:20;;;;;;;17.38;5.40;;;;;;;8.43;100.00;101478.59;5084517;28;20131;-76
2023/01/04 04:30:49;;;;;;;15.60;5.20;;;;;;;8.43;100.00;101516.41;5081527;28;20036;-76
2023/01/04 04:33:14;;;;;;;16.15;5.93;;;;;;;8.41;100.00;101477.69;5084303;28;20036;-76
2023/01/04 04:35:40;;;;;;;16.42;5.38;;;;;;;8.49;100.00;101473.50;5082343;28;20031;-75
2023/01/04 04:38:05;;;;;;;16.85;5.47;;;;;;;8.54;100.00;101458.69;5083078;28;20023;-77
2023/01/04 04:43:14;;;;;;;18.00;6.00;;;;;;;8.61;100.00;101454.47;5084526;28;20444;-76
2023/01/04 04:45:40;;;;;;;17.58;5.60;;;;;;;8.60;100.00;101456.19;5081553;28;20032;-76
2023/01/04 04:48:05;;;;;;;17.10;5.70;;;;;;;8.60;100.00;101450.91;5082861;28;20035;-77
2023/01/04 04:50:30;;;;;;;18.08;6.00;;;;;;;8.62;100.00;101449.22;5083313;28;20028;-76
2023/01/04 04:52:56;;;;;;;15.95;5.40;;;;;;;8.69;100.00;101481.88;5081586;28;20090;-78
2023/01/04 04:55:21;;;;;;;19.40;6.15;;;;;;;8.70;100.00;101441.47;5084590;28;20044;-76
2023/01/04 04:57:47;;;;;;;16.95;5.97;;;;;;;8.67;100.00;101437.03;5080925;28;20031;-79
2023/01/04 05:00:12;;;;;;;18.23;6.00;;;;;;;8.71;100.00;101432.72;5083662;28;20038;-76
2023/01/04 05:02:38;;;;;;;16.40;5.75;;;;;;;8.70;100.00;101439.72;5082152;28;20115;-77
2023/01/04 05:05:04;;;;;;;17.42;6.10;;;;;;;8.72;100.00;101445.94;5082239;28;20028;-74
2023/01/04 05:07:29;;;;;;;17.00;5.93;;;;;;;8.72;100.00;101448.56;5083475;28;20024;-74
2023/01/04 05:09:54;;;;;;;16.33;5.63;;;;;;;8.75;100.00;101442.44;5080915;28;20056;-74
2023/01/04 05:15:04;;;;;;;17.75;5.88;;;;;;;8.74;100.00;101438.06;5080522;28;20441;-75
2023/01/04 05:17:29;;;;;;;17.38;5.50;;;;;;;8.82;100.00;101419.75;5065373;28;20028;-74
2023/01/04 05:19:55;;;;;;;17.58;5.65;;;;;;;8.88;100.00;101420.78;5081175;28;20035;-77
2023/01/04 05:22:20;;;;;;;17.05;5.35;;;;;;;8.92;100.00;101413.81;5084320;28;20025;-76
2023/01/04 05:24:45;;;;;;;16.50;4.82;;;;;;;8.97;100.00;101413.91;5081133;28;20387;-75
2023/01/04 05:27:10;;;;;;;14.98;5.10;;;;;;;8.94;100.00;101425.28;5082814;28;20067;-75
2023/01/04 05:32:20;;;;;;;15.90;4.80;;;;;;;8.96;100.00;101420.06;5077099;28;20078;-75
2023/01/04 05:34:45;;;;;;;15.98;4.57;;;;;;;8.95;100.00;101389.25;5083806;28;20060;-74
2023/01/04 05:37:10;;;;;;;15.15;5.07;;;;;;;9.00;100.00;101412.22;5081487;28;20032;-74
2023/01/04 05:39:36;;;;;;;14.38;4.88;;;;;;;9.04;100.00;101406.16;5082382;28;20021;-74
2023/01/04 05:44:45;;;;;;;16.30;5.10;;;;;;;9.00;100.00;101399.03;5083815;28;20050;-75
2023/01/04 05:47:10;;;;;;;14.10;4.65;;;;;;;9.06;100.00;101393.88;5081327;28;20028;-76
2023/01/04 05:49:36;;;;;;;15.68;4.57;;;;;;;9.08;100.00;101386.88;5082220;28;20060;-76
2023/01/04 05:52:01;;;;;;;15.70;5.07;;;;;;;9.05;100.00;101393.84;5082635;28;20107;-76
2023/01/04 05:54:26;;;;;;;14.27;4.75;;;;;;;9.07;100.00;101369.28;5080836;28;20387;-77
2023/01/04 05:56:52;;;;;;;15.00;4.70;;;;;;;9.10;100.00;101396.56;5083936;28;20107;-78
2023/01/04 05:59:17;;;;;;;16.30;4.90;;;;;;;9.11;100.00;101391.31;5084148;28;20450;-76
2023/01/04 06:01:42;;;;;;;15.52;4.88;;;;;;;9.13;100.00;101372.88;5086597;28;20670;-76
2023/01/04 06:04:08;;;;;;;16.10;5.10;;;;;;;9.13;100.00;101370.25;5085604;28;20077;-76
2023/01/04 06:06:33;;;;;;;17.58;4.90;;;;;;;9.09;100.00;101408.88;5085333;28;20143;-75
2023/01/04 06:08:58;;;;;;;14.52;4.90;;;;;;;9.13;100.00;101396.63;5086987;28;20123;-75
2023/01/04 06:11:24;;;;;;;15.55;4.75;;;;;;;9.15;100.00;101381.72;5084139;28;20028;-76
2023/01/04 06:13:49;;;;;;;14.38;4.72;;;;;;;9.19;100.00;101400.28;5087286;28;20036;-77
2023/01/04 06:16:14;;;;;;;14.95;4.85;;;;;;;9.20;100.00;101382.69;5084468;28;20082;-75
2023/01/04 06:18:40;;;;;;;15.63;4.90;;;;;;;9.23;100.00;101398.56;5085997;28;20074;-76
2023/01/04 06:21:05;;;;;;;15.10;4.80;;;;;;;9.24;100.00;101414.44;5085639;28;20024;-76
2023/01/04 06:23:30;;;;;;;15.65;4.57;;;;;;;9.26;100.00;101364.34;5084684;28;20031;-76
2023/01/04 06:25:55;;;;;;;14.77;4.78;;;;;;;9.29;100.00;101387.25;5087056;28;20036;-76
2023/01/04 06:28:21;;;;;;;15.75;5.00;;;;;;;9.23;100.00;101381.00;5052352;28;20041;-81
2023/01/04 06:30:46;;;;;;;14.82;4.50;;;;;;;9.23;100.00;101356.38;5049289;28;20119;-74
2023/01/04 06:33:12;;;;;;;14.15;4.43;;;;;;;9.30;100.00;101382.00;5059935;28;20513;-86
2023/01/04 06:35:37;;;;;;;16.00;4.90;;;;;;;9.29;100.00;101363.50;5063576;28;20471;-83
2023/01/04 06:38:02;;;;;;;16.52;5.03;;;;;;;9.31;100.00;101365.31;5058376;28;20102;-79
2023/01/04 06:40:28;;;;;;;13.65;4.90;;;;;;;9.24;100.00;101377.50;5057932;28;20035;-78
2023/01/04 06:42:53;;;;;;;14.43;4.90;;;;;;;9.28;100.00;101380.22;5062515;28;20029;-81
2023/01/04 06:45:22;;;;;;;15.70;5.10;;;;;;;9.27;100.00;101375.78;5062350;28;20495;-80
2023/01/04 06:47:47;;;;;;;14.68;4.80;;;;;;;9.29;100.00;101398.72;5051323;28;20025;-80
2023/01/04 06:50:15;;;;;;;14.05;4.82;;;;;;;9.28;100.00;101381.09;5062266;28;20524;-80
2023/01/04 06:52:41;;;;;;;13.13;5.00;;;;;;;9.27;100.00;101389.88;5037875;28;20116;-82
2023/01/04 06:55:10;;;;;;;14.95;4.90;;;;;;;9.29;100.00;101374.97;5063725;28;20031;-81
2023/01/04 06:57:36;;;;;;;12.98;4.72;;;;;;;9.34;100.00;101391.75;5057629;28;20048;-83
2023/01/04 07:00:05;;;;;;;16.98;5.00;;;;;;;9.31;100.00;101383.78;5043916;28;20399;-81
2023/01/04 07:02:30;;;;;;;11.90;4.35;;;;;;;9.35;100.00;101359.25;5053965;28;20115;-82
2023/01/04 07:04:55;;;;;;;14.30;4.65;;;;;;;9.39;100.00;101376.91;5060617;28;20097;-80
2023/01/04 07:07:20;;;;;;;12.82;4.70;;;;;;;9.37;100.00;101372.44;5057699;28;20048;-80
2023/01/04 07:09:46;;;;;;;14.05;5.03;;;;;;;9.36;100.00;101378.59;5055217;28;20038;-83
2023/01/04 07:12:11;;;;;;;11.63;4.45;;;;;;;9.41;100.00;101388.38;5062391;28;20063;-79
2023/01/04 07:14:37;;;;;;;13.43;4.97;;;;;;;9.46;100.00;101361.16;5057249;28;20030;-80
2023/01/04 07:17:02;;;;;;;13.75;4.57;;;;;;;9.42;100.00;101347.94;5062821;28;20055;-82
2023/01/04 07:19:27;;;;;;;14.27;4.35;;;;;;;9.46;100.00;101354.13;5060459;28;20291;-84
2023/01/04 07:21:53;;;;;;;11.75;4.05;;;;;;;9.54;100.00;101343.72;5066746;28;20031;-83
2023/01/04 07:24:18;;;;;;;13.45;4.10;;;;;;;9.58;100.00;101345.53;5060894;28;20111;-80
2023/01/04 07:26:44;;;;;;;10.27;3.88;;;;;;;9.58;100.00;101348.16;5066401;28;20131;-77
2023/01/04 07:29:13;;;;;;;12.82;4.03;;;;;;;9.58;100.00;101330.59;5077692;28;20039;-80
2023/01/04 07:31:38;;;;;;;11.57;3.90;;;;;;;9.63;100.00;101349.16;5074994;28;20029;-77
2023/01/04 07:34:04;;;;;;;12.10;3.33;;;;;;;9.65;100.00;101346.53;5083809;28;20025;-79
2023/01/04 07:36:29;;;;;;;9.63;3.28;;;;;;;9.70;100.00;101350.16;5082452;28;20538;-80
2023/01/04 07:38:54;;;;;;;9.95;3.30;;;;;;;9.69;100.00;101330.75;5081149;28;20067;-83
2023/01/04 07:41:20;;;;;;;9.65;3.20;;;;;;;9.69;100.00;101327.25;5084141;28;20070;-81
2023/01/04 07:46:20;;;;;;;10.18;3.20;;;;;;;9.75;100.00;101338.75;5336684;22;20068;-82
2023/01/04 07:48:46;;;;;;;11.18;3.28;;;;;;;9.81;100.00;101318.63;5041844;28;20457;-84
2023/01/04 07:51:11;;;;;;;8.45;2.78;;;;;;;9.82;100.00;101323.03;5043790;28;20041;-85
2023/01/04 07:53:37;;;;;;;9.93;2.83;;;;;;;9.77;100.00;101310.66;5056968;28;20075;-88
2023/01/04 07:56:02;;;;;;;10.70;2.90;;;;;;;9.86;100.00;101320.47;5051984;28;20036;-83
2023/01/04 07:58:31;;;;;;;10.75;3.20;;;;;;;9.87;100.00;101305.50;5051334;28;20031;-83
2023/01/04 08:01:06;;;;;;;12.27;3.15;;;;;;;10.00;100.00;101299.50;5033675;28;20017;-86
2023/01/04 08:03:31;;;;;;;10.65;3.00;;;;;;;10.00;100.00;101322.41;5049039;28;20492;-83
2023/01/04 08:05:57;;;;;;;11.93;2.80;;;;;;;9.98;100.00;101310.94;5053549;28;20032;-83
2023/01/04 08:08:22;;;;;;;9.32;2.97;;;;;;;10.02;100.00;101318.94;5051052;28;20029;-82
2023/01/04 08:10:47;;;;;;;8.38;2.80;;;;;;;10.09;100.00;101310.22;5052624;28;20078;-80
2023/01/04 08:13:13;;;;;;;9.75;2.90;;;;;;;10.08;100.00;101326.94;5050964;28;20033;-82
2023/01/04 08:15:38;;;;;;;11.77;3.08;;;;;;;10.03;100.00;101323.34;5054661;28;20083;-79
2023/01/04 08:18:03;;;;;;;10.52;3.00;;;;;;;10.05;100.00;101313.69;5053243;28;20475;-79
2023/01/04 08:20:29;;;;;;;10.35;2.90;;;;;;;10.12;100.00;101334.03;5032271;28;20029;-79
2023/01/04 08:22:54;;;;;;;11.20;3.00;;;;;;;10.15;100.00;101316.44;5035232;28;20025;-79
2023/01/04 08:25:19;;;;;;;8.48;2.63;;;;;;;10.18;100.00;101334.97;5055780;28;20029;-79
2023/01/04 08:27:45;;;;;;;13.30;3.00;;;;;;;10.16;100.00;101342.00;5056962;28;20025;-79
2023/01/04 08:30:11;;;;;;;10.77;2.90;;;;;;;10.21;100.00;101356.19;5052347;28;20045;-78
2023/01/04 08:32:36;;;;;;;10.95;3.10;;;;;;;10.26;100.00;101344.78;5054871;28;20055;-78
2023/01/04 08:35:01;;;;;;;14.80;3.10;;;;;;;10.25;100.00;101344.75;5051979;28;20025;-79
2023/01/04 08:37:28;;;;;;;11.32;3.17;;;;;;;10.24;100.00;101364.16;5036235;28;20040;-78
2023/01/04 08:39:54;;;;;;;12.55;3.10;;;;;;;10.24;100.00;101354.47;5052796;28;20029;-78
2023/01/04 08:42:19;;;;;;;14.88;3.38;;;;;;;10.27;100.00;101343.06;5052316;28;20031;-79
2023/01/04 08:44:44;;;;;;;16.23;3.30;;;;;;;10.27;100.00;101359.78;5052469;28;20030;-78
2023/01/04 08:47:10;;;;;;;11.57;3.20;;;;;;;10.38;100.00;101346.75;5052138;28;20071;-78
2023/01/04 08:49:35;;;;;;;13.23;3.28;;;;;;;10.34;100.00;101355.50;5052662;28;20036;-79
2023/01/04 08:52:01;;;;;;;11.30;2.88;;;;;;;10.39;100.00;101356.44;5052332;28;20070;-78
2023/01/04 08:54:26;;;;;;;12.30;2.85;;;;;;;10.36;100.00;101345.84;5052476;28;20040;-78
2023/01/04 08:56:51;;;;;;;11.32;2.88;;;;;;;10.40;100.00;101354.72;5052728;28;20029;-75
2023/01/04 08:59:17;;;;;;;14.52;3.25;;;;;;;10.47;100.00;101353.94;5052445;28;20060;-76
2023/01/04 09:01:42;;;;;;;12.93;3.28;;;;;;;10.45;100.00;101347.72;5052369;28;20021;-76
2023/01/04 09:04:08;;;;;;;12.60;2.92;;;;;;;10.51;100.00;101331.03;5052553;28;20595;-77
2023/01/04 09:06:34;;;;;;;12.55;2.90;;;;;;;10.50;100.00;101335.47;5052297;28;20048;-76
2023/01/04 09:08:59;;;;;;;11.82;3.05;;;;;;;10.49;100.00;101353.94;5052192;28;20033;-76
2023/01/04 09:11:25;;;;;;;12.65;2.70;;;;;;;10.53;100.00;101348.72;5052563;28;20072;-76
2023/01/04 09:13:59;;;;;;;10.38;2.70;;;;;;;10.50;100.00;101360.97;5052155;28;20060;-79
2023/01/04 09:16:24;;;;;;;10.30;2.63;;;;;;;10.49;100.00;101356.59;5043789;28;20368;-84
2023/01/04 09:18:49;;;;;;;11.38;3.25;;;;;;;10.50;100.00;101348.69;5033346;28;20036;-84
2023/01/04 09:21:20;;;;;;;11.30;2.80;;;;;;;10.45;100.00;101339.78;5051220;28;20609;-82
2023/01/04 09:23:46;;;;;;;11.60;2.70;;;;;;;10.52;100.00;101401.56;5036819;28;20036;-86
2023/01/04 09:26:17;;;;;;;12.00;2.90;;;;;;;10.47;100.00;101348.63;5049480;28;20422;-84
2023/01/04 09:28:44;;;;;;;12.65;2.90;;;;;;;10.39;100.00;101353.81;5051484;28;20044;-87
2023/01/04 09:31:17;;;;;;;9.95;2.80;;;;;;;10.36;100.00;101337.03;5055427;28;20029;-89
2023/01/04 09:33:44;;;;;;;12.80;2.90;;;;;;;10.30;100.00;101332.50;5057103;28;20025;-94
2023/01/04 09:36:13;;;;;;;12.38;2.90;;;;;;;10.29;100.00;101330.72;5056645;28;20035;-91
2023/01/04 09:38:38;;;;;;;9.93;2.88;;;;;;;10.26;100.00;101350.06;5057964;28;20032;-83
2023/01/04 09:41:12;;;;;;;9.38;3.08;;;;;;;10.25;100.00;101350.97;5041331;28;20029;-81
2023/01/04 09:43:50;;;;;;;11.50;3.30;;;;;;;10.16;100.00;101331.44;5038939;28;20024;-78
2023/01/04 09:46:53;;;;;;;10.82;3.22;;;;;;;10.17;100.00;101347.31;5054808;28;20107;-83
2023/01/04 09:49:28;;;;;;;11.13;3.40;;;;;;;10.17;100.00;101349.94;5024954;28;20084;-79
2023/01/04 09:51:59;;;;;;;14.02;3.70;;;;;;;10.14;100.00;101346.41;5058505;28;20054;-80
2023/01/04 09:54:31;;;;;;;13.25;3.35;;;;;;;10.13;100.00;101353.41;5057454;28;20025;-80
2023/01/04 09:56:58;;;;;;;13.10;3.50;;;;;;;10.11;100.00;101363.09;5054079;28;20028;-80
2023/01/04 09:59:30;;;;;;;15.73;4.07;;;;;;;10.14;100.00;101351.69;5054718;28;20029;-78
2023/01/04 10:02:09;;;;;;;14.90;4.00;;;;;;;10.18;100.00;101332.34;5054803;28;20021;-78
2023/01/04 10:04:47;;;;;;;14.40;4.00;;;;;;;10.17;100.00;101335.88;5054975;28;20029;-77
2023/01/04 10:07:25;;;;;;;15.38;3.90;;;;;;;10.20;100.00;101330.63;5053339;28;20040;-77
2023/01/04 10:09:50;;;;;;;17.17;4.07;;;;;;;10.18;100.00;101322.69;5054595;28;20040;-78
2023/01/04 10:12:51;;;;;;;15.82;4.15;;;;;;;10.24;100.00;101335.09;5055410;28;20021;-79
2023/01/04 10:15:30;;;;;;;16.38;4.40;;;;;;;10.23;100.00;101309.53;5052916;28;20028;-78
2023/01/04 10:18:01;;;;;;;15.63;4.40;;;;;;;10.17;100.00;101334.09;5056922;28;20036;-77
2023/01/04 10:21:03;;;;;;;15.68;4.70;;;;;;;10.16;100.00;101327.03;5052166;28;20104;-77
2023/01/04 10:23:50;;;;;;;16.87;5.17;;;;;;;10.18;100.00;101327.97;5052095;28;20029;-77
2023/01/04 10:26:25;;;;;;;16.58;4.70;;;;;;;10.20;100.00;101351.75;5055296;28;20625;-77
2023/01/04 10:29:17;;;;;;;13.77;4.38;;;;;;;10.19;100.00;101340.28;5052106;28;20487;-77
2023/01/04 10:32:10;;;;;;;19.30;4.85;;;;;;;10.17;100.00;101368.44;5051264;28;20532;-77
2023/01/04 10:34:41;;;;;;;16.05;4.47;;;;;;;10.20;100.00;101347.34;5054231;28;20064;-76
2023/01/04 10:37:12;;;;;;;15.70;4.30;;;;;;;10.19;100.00;101356.13;5054823;28;20033;-77
2023/01/04 10:39:39;;;;;;;15.38;4.50;;;;;;;10.18;100.00;101337.63;5055168;28;20375;-80
2023/01/04 10:42:12;;;;;;;18.23;5.22;;;;;;;10.15;100.00;101327.91;5049118;28;20059;-78
2023/01/04 10:44:43;;;;;;;19.17;4.80;;;;;;;10.20;100.00;101331.50;5055418;28;20033;-78
2023/01/04 10:47:15;;;;;;;17.85;5.05;;;;;;;10.18;100.00;101316.47;5060242;28;20049;-78
2023/01/04 10:49:48;;;;;;;;;;;;;;;10.18;100.00;101312.09;5054422;28;20037;-77
2023/01/04 10:52:19;;;;;;;;;;;;;;;10.18;100.00;101295.34;5054792;28;19920;-77
2023/01/04 10:55:00;;;;;;;19.58;5.25;;;;;;;10.16;100.00;101312.94;5057334;28;19966;-77
2023/01/04 10:57:35;;;;;;;16.73;4.93;;;;;;;10.18;100.00;101342.91;5036265;28;20024;-77
2023/01/04 11:00:06;;;;;;;17.00;4.80;;;;;;;10.19;100.00;101297.13;5055230;28;20021;-77
2023/01/04 11:02:49;;;;;;;16.60;4.82;;;;;;;10.14;100.00;101298.84;5053972;28;20028;-76
2023/01/04 11:05:29;;;;;;;15.68;4.70;;;;;;;10.16;100.00;101327.03;5053384;28;20441;-76
2023/01/04 11:08:25;;;;;;;17.10;4.70;;;;;;;10.12;100.00;101315.56;5054625;28;20079;-77
2023/01/04 11:11:02;;;;;;;16.73;4.90;;;;;;;10.11;100.00;101315.53;5042576;28;20459;-77
2023/01/04 11:13:28;;;;;;;14.40;4.20;;;;;;;10.15;100.00;101319.09;5054343;28;20109;-76
2023/01/04 11:15:54;;;;;;;16.23;4.60;;;;;;;10.13;100.00;101324.34;5053524;28;20119;-76
2023/01/04 11:18:19;;;;;;;13.38;4.00;;;;;;;10.17;100.00;101315.59;5053851;28;20033;-76
2023/01/04 11:20:45;;;;;;;14.75;3.90;;;;;;;10.17;100.00;101327.94;5052816;28;20071;-77
2023/01/04 11:23:19;;;;;;;12.70;3.85;;;;;;;10.16;100.00;101319.09;5052846;28;20078;-77
2023/01/04 11:25:58;;;;;;;11.88;3.50;;;;;;;10.18;100.00;101306.81;5052404;28;20119;-78
2023/01/04 11:28:56;;;;;;;10.00;3.30;;;;;;;10.17;100.00;101314.72;5051369;28;20107;-78
2023/01/04 11:31:25;;;;;;;11.30;3.78;;;;;;;10.16;100.00;101313.81;5052932;28;20471;-78
2023/01/04 11:33:55;;;;;;;12.13;3.50;;;;;;;10.19;100.00;101312.97;5054083;28;20052;-77
2023/01/04 11:36:42;;;;;;;11.02;3.25;;;;;;;10.22;100.00;101295.44;5054428;28;20017;-77
2023/01/04 11:39:24;;;;;;;7.78;3.20;;;;;;;10.20;100.00;101309.47;5050953;28;20083;-77
2023/01/04 11:41:57;;;;;;;9.32;3.20;;;;;;;10.24;100.00;101300.75;5054067;28;20029;-76
2023/01/04 11:44:23;;;;;;;8.60;3.08;;;;;;;10.20;100.00;101312.13;5053812;28;20071;-78
2023/01/04 11:47:12;;;;;;;10.05;3.10;;;;;;;10.23;100.00;101309.53;5053525;28;20060;-76
2023/01/04 11:49:38;;;;;;;6.68;2.90;;;;;;;10.17;100.00;101306.81;5050611;28;20025;-75
2023/01/04 11:52:04;;;;;;;7.40;2.90;;;;;;;10.17;100.00;101325.31;5048086;28;20032;-78
2023/01/04 11:54:29;;;;;;;8.48;2.80;;;;;;;10.18;100.00;101309.47;5050673;28;20040;-75
2023/01/04 11:57:07;;;;;;;6.15;2.70;;;;;;;10.25;100.00;101334.19;5053254;28;20503;-76
2023/01/04 11:59:33;;;;;;;8.02;2.70;;;;;;;10.20;100.00;101305.06;5054627;28;20036;-76
2023/01/04 12:02:20;;;;;;;9.80;2.70;;;;;;;10.22;100.00;101324.50;5057132;28;20035;-76
2023/01/04 12:04:45;;;;;;;6.95;2.72;;;;;;;10.20;100.00;101317.41;5052070;28;20036;-77
2023/01/04 12:07:33;;;;;;;6.13;2.40;;;;;;;10.22;100.00;101313.03;5054068;28;20021;-75
2023/01/04 12:10:00;;;;;;;5.40;2.40;;;;;;;10.21;100.00;101314.78;5052199;28;20467;-76
2023/01/04 12:12:32;;;;;;;6.10;2.50;;;;;;;10.21;100.00;101328.00;5052099;28;20480;-78
2023/01/04 12:15:08;;;;;;;6.93;2.35;;;;;;;10.23;100.00;101322.72;5054272;28;20025;-76
2023/01/04 12:17:52;;;;;;;5.72;2.38;;;;;;;10.22;100.00;101319.22;5053280;28;20021;-79
2023/01/04 12:20:20;;;;;;;5.13;2.30;;;;;;;10.22;100.00;101315.66;5052145;28;20033;-77